Time;durP1;ratioP1;P1;durP2;ratioP2;P2;SDS_P1;SDS_P2;PMS_P1;PMS_P2;Temp;Humidity;BMP_temperature;BMP_pressure;BME280_temperature;BME280_humidity;BME280_pressure;Samples;Min_cycle;Max_cycle;Signal;HPM_P1;HPM_P2
2023/04/05 00:01:12;;;;;;;9.70;6.10;;;2.20;99.30;;;;;;4899134;29;20468;-76
2023/04/05 00:03:41;;;;;;;11.77;6.47;;;2.20;99.30;;;;;;4897883;29;20488;-76
2023/04/05 00:06:12;;;;;;;9.23;6.40;;;2.10;99.30;;;;;;4897782;29;20481;-77
2023/04/05 00:08:40;;;;;;;9.73;7.37;;;2.10;99.40;;;;;;4897845;29;20551;-76
2023/04/05 00:11:08;;;;;;;7.83;7.03;;;2.10;99.40;;;;;;4897962;29;20997;-77
2023/04/05 00:13:38;;;;;;;9.30;7.20;;;2.10;99.40;;;;;;4897882;29;20477;-76
2023/04/05 00:16:07;;;;;;;9.23;7.20;;;2.00;99.40;;;;;;4897825;29;20455;-76
2023/04/05 00:18:37;;;;;;;7.37;6.40;;;2.00;99.50;;;;;;4899060;29;20455;-76
2023/04/05 00:21:05;;;;;;;10.73;7.13;;;2.00;99.50;;;;;;4897899;29;20472;-77
2023/04/05 00:23:37;;;;;;;8.97;6.23;;;1.90;99.40;;;;;;4897537;29;20555;-76
2023/04/05 00:26:05;;;;;;;8.23;6.83;;;1.90;99.50;;;;;;4897584;29;20793;-77
2023/04/05 00:28:34;;;;;;;8.93;6.73;;;1.90;99.50;;;;;;4897418;29;20456;-77
2023/04/05 00:31:03;;;;;;;9.50;6.87;;;1.80;99.50;;;;;;4897314;29;20999;-77
2023/04/05 00:33:32;;;;;;;9.63;6.83;;;1.90;99.50;;;;;;4897491;29;20827;-76
2023/04/05 00:36:10;;;;;;;9.90;7.23;;;1.80;99.50;;;;;;4897323;29;20456;-76
2023/04/05 00:38:38;;;;;;;9.70;7.00;;;1.80;99.60;;;;;;4897349;29;20911;-76
2023/04/05 00:41:07;;;;;;;7.73;6.77;;;1.70;99.60;;;;;;4897362;29;20482;-77
2023/04/05 00:43:35;;;;;;;9.10;7.40;;;1.70;99.60;;;;;;4897071;29;20491;-76
2023/04/05 00:46:06;;;;;;;9.70;7.40;;;1.70;99.60;;;;;;4897347;29;20469;-76
2023/04/05 00:48:35;;;;;;;8.80;6.93;;;1.70;99.60;;;;;;4897370;29;20501;-76
2023/04/05 00:51:03;;;;;;;9.17;7.57;;;1.60;99.60;;;;;;4897110;29;20489;-77
2023/04/05 00:53:32;;;;;;;8.30;7.40;;;1.60;99.70;;;;;;4897208;29;20871;-77
2023/04/05 00:56:00;;;;;;;7.50;6.23;;;1.60;99.70;;;;;;4897058;29;20893;-77
2023/04/05 00:58:29;;;;;;;7.97;6.73;;;1.60;99.70;;;;;;4896403;29;20796;-76
2023/04/05 01:01:04;;;;;;;9.37;6.97;;;1.60;99.70;;;;;;4897017;29;20567;-77
2023/04/05 01:03:37;;;;;;;7.20;6.40;;;1.50;99.70;;;;;;4897026;29;20454;-76
2023/04/05 01:06:20;;;;;;;10.47;7.73;;;1.50;99.70;;;;;;4897166;29;20479;-76
2023/04/05 01:08:58;;;;;;;10.00;6.97;;;1.50;99.80;;;;;;4897057;29;20466;-76
2023/04/05 01:11:26;;;;;;;9.77;6.67;;;1.40;99.70;;;;;;4896909;29;20479;-77
2023/04/05 01:13:59;;;;;;;10.73;7.40;;;1.40;99.70;;;;;;4898205;29;20437;-77
2023/04/05 01:16:27;;;;;;;9.10;6.80;;;1.40;99.80;;;;;;4897038;29;20462;-76
2023/04/05 01:18:57;;;;;;;8.30;7.30;;;1.40;99.80;;;;;;4896984;29;20502;-77
2023/04/05 01:21:46;;;;;;;9.03;7.23;;;1.40;99.90;;;;;;4896726;29;20600;-77
2023/04/05 01:24:27;;;;;;;8.83;7.10;;;1.40;99.90;;;;;;4896760;29;20450;-77
2023/04/05 01:27:06;;;;;;;8.60;7.10;;;1.30;99.90;;;;;;4896629;29;20475;-76
2023/04/05 01:29:48;;;;;;;11.33;6.93;;;1.30;99.90;;;;;;4896733;29;20538;-76
2023/04/05 01:32:30;;;;;;;9.17;7.27;;;1.30;99.90;;;;;;4896686;29;20481;-76
2023/04/05 01:35:05;;;;;;;9.77;6.90;;;1.30;99.90;;;;;;4897015;29;20955;-77
2023/04/05 01:37:35;;;;;;;10.30;7.70;;;1.20;99.90;;;;;;4896686;29;20440;-76
2023/04/05 01:40:05;;;;;;;9.77;7.00;;;1.20;99.90;;;;;;4898293;29;20561;-76
2023/04/05 01:42:33;;;;;;;9.90;7.83;;;1.20;99.90;;;;;;4896562;29;20610;-76
2023/04/05 01:45:02;;;;;;;8.77;6.97;;;1.20;99.90;;;;;;4896689;29;20460;-76
2023/04/05 01:47:32;;;;;;;12.20;8.33;;;1.20;99.90;;;;;;4896535;29;20528;-77
2023/04/05 01:50:01;;;;;;;9.00;7.50;;;1.20;99.90;;;;;;4897230;29;20462;-76
2023/04/05 01:52:29;;;;;;;9.23;7.30;;;1.10;99.90;;;;;;4896561;29;20559;-76
2023/04/05 01:54:57;;;;;;;11.27;7.00;;;1.10;99.90;;;;;;4897099;29;20513;-76
2023/04/05 01:57:25;;;;;;;12.57;7.47;;;1.10;99.90;;;;;;4896943;29;20455;-77
2023/04/05 01:59:53;;;;;;;9.10;6.90;;;1.10;99.90;;;;;;4896561;29;20453;-77
2023/04/05 02:02:23;;;;;;;10.17;7.60;;;1.10;99.90;;;;;;4896449;29;20489;-77
2023/04/05 02:04:51;;;;;;;11.33;7.70;;;1.10;99.90;;;;;;4896396;29;20455;-77
2023/04/05 02:07:19;;;;;;;10.60;7.77;;;1.00;99.90;;;;;;4896448;29;20475;-77
2023/04/05 02:09:48;;;;;;;11.47;6.90;;;1.00;99.90;;;;;;4898453;29;20456;-77
2023/04/05 02:12:16;;;;;;;9.17;7.00;;;1.00;99.90;;;;;;4899891;29;20493;-77
2023/04/05 02:14:44;;;;;;;9.50;7.67;;;1.00;99.90;;;;;;4899941;29;20954;-76
2023/04/05 02:17:12;;;;;;;8.63;6.90;;;0.90;99.90;;;;;;4899884;29;20463;-77
2023/04/05 02:19:45;;;;;;;11.10;7.23;;;0.90;99.90;;;;;;4899794;29;20451;-77
2023/04/05 02:22:13;;;;;;;9.27;6.77;;;0.90;99.90;;;;;;4899717;29;20541;-76
2023/04/05 02:24:41;;;;;;;10.30;8.10;;;0.90;99.90;;;;;;4899773;29;20442;-76
2023/04/05 02:27:11;;;;;;;11.80;9.70;;;0.80;99.90;;;;;;4899695;29;20480;-77
2023/04/05 02:29:39;;;;;;;12.50;9.60;;;0.80;99.90;;;;;;4899714;29;20482;-76
2023/04/05 02:32:07;;;;;;;10.20;7.90;;;0.80;99.90;;;;;;4899579;29;20493;-77
2023/04/05 02:34:40;;;;;;;10.70;7.73;;;0.80;99.90;;;;;;4899546;29;21028;-77
2023/04/05 02:37:09;;;;;;;11.80;7.97;;;0.80;99.90;;;;;;4899502;29;20442;-76
2023/04/05 02:39:37;;;;;;;10.10;7.20;;;0.80;99.90;;;;;;4899470;29;20461;-76
2023/04/05 02:42:06;;;;;;;9.90;7.20;;;0.70;99.90;;;;;;4900828;29;20471;-76
2023/04/05 02:44:34;;;;;;;9.97;7.73;;;0.70;99.90;;;;;;4900756;29;20813;-76
2023/04/05 02:47:02;;;;;;;9.63;7.70;;;0.70;99.90;;;;;;4899329;29;20474;-76
2023/04/05 02:49:32;;;;;;;10.30;8.47;;;0.70;99.90;;;;;;4900083;29;20530;-76
2023/04/05 02:52:03;;;;;;;11.30;7.43;;;0.70;99.90;;;;;;4899154;29;20542;-75
2023/04/05 02:54:33;;;;;;;9.20;7.13;;;0.70;99.90;;;;;;4899407;29;20462;-77
2023/04/05 02:57:03;;;;;;;10.27;7.47;;;0.60;99.90;;;;;;4899787;29;20439;-77
2023/04/05 02:59:41;;;;;;;9.97;7.70;;;0.60;99.90;;;;;;4899275;29;21032;-76
2023/04/05 03:02:10;;;;;;;9.50;7.47;;;0.60;99.90;;;;;;4898980;29;20483;-76
2023/04/05 03:04:39;;;;;;;11.43;7.57;;;0.60;99.90;;;;;;4898982;29;20881;-76
2023/04/05 03:07:09;;;;;;;10.23;7.97;;;0.50;99.90;;;;;;4899087;29;21050;-76
2023/04/05 03:09:41;;;;;;;8.50;7.60;;;0.50;99.90;;;;;;4899253;29;20550;-76
2023/04/05 03:12:10;;;;;;;9.70;7.80;;;0.50;99.90;;;;;;4899184;29;20483;-76
2023/04/05 03:14:41;;;;;;;11.13;7.97;;;0.50;99.90;;;;;;4899147;29;20820;-77
2023/04/05 03:17:13;;;;;;;17.57;12.87;;;0.50;99.90;;;;;;4898911;29;20492;-77
2023/04/05 03:19:47;;;;;;;29.33;21.67;;;0.40;99.90;;;;;;4899449;29;20454;-76
2023/04/05 03:22:22;;;;;;;22.13;15.37;;;0.40;99.90;;;;;;4898223;29;20481;-77
2023/04/05 03:24:52;;;;;;;27.30;18.23;;;0.40;99.90;;;;;;4899945;29;20451;-77
2023/04/05 03:27:22;;;;;;;24.20;17.73;;;0.40;99.90;;;;;;4898597;29;20474;-77
2023/04/05 03:30:02;;;;;;;16.20;11.60;;;0.40;99.90;;;;;;4899344;29;20461;-77
2023/04/05 03:32:34;;;;;;;18.70;10.50;;;0.30;99.90;;;;;;4898525;29;20465;-77
2023/04/05 03:35:12;;;;;;;12.97;10.07;;;0.30;99.90;;;;;;4898662;29;20436;-76
2023/04/05 03:37:43;;;;;;;12.90;8.80;;;0.30;99.90;;;;;;4899057;29;20459;-76
2023/04/05 03:40:14;;;;;;;10.87;8.77;;;0.30;99.90;;;;;;4898505;29;20818;-76
2023/04/05 03:42:43;;;;;;;10.90;8.80;;;0.30;99.90;;;;;;4898365;29;20536;-76
2023/04/05 03:45:11;;;;;;;9.87;7.90;;;0.30;99.90;;;;;;4898472;29;20462;-76
2023/04/05 03:47:40;;;;;;;9.90;8.77;;;0.20;99.90;;;;;;4898446;29;20473;-76
2023/04/05 03:50:09;;;;;;;11.23;8.00;;;0.20;99.90;;;;;;4898131;29;21032;-76
2023/04/05 03:52:37;;;;;;;9.77;8.40;;;0.20;99.90;;;;;;4898088;29;20474;-76
2023/04/05 03:55:06;;;;;;;9.67;8.07;;;0.20;99.90;;;;;;4897980;29;20454;-76
2023/04/05 03:57:37;;;;;;;10.33;7.83;;;0.20;99.90;;;;;;4897849;29;20961;-76
2023/04/05 04:00:19;;;;;;;10.93;7.83;;;0.10;99.90;;;;;;4897913;29;20825;-76
2023/04/05 04:03:03;;;;;;;11.40;7.53;;;0.10;99.90;;;;;;4898394;29;20858;-76
2023/04/05 04:05:37;;;;;;;9.60;7.00;;;0.10;99.90;;;;;;4899201;29;20469;-76
2023/04/05 04:08:08;;;;;;;10.40;8.10;;;0.10;99.90;;;;;;4897607;29;20568;-76
2023/04/05 04:10:37;;;;;;;10.37;8.63;;;0.10;99.90;;;;;;4897795;29;20544;-76
2023/04/05 04:13:18;;;;;;;10.83;8.57;;;0.10;99.90;;;;;;4898367;29;20618;-76
2023/04/05 04:15:50;;;;;;;9.00;8.00;;;0.00;99.90;;;;;;4897894;29;20453;-76
2023/04/05 04:18:45;;;;;;;10.50;7.80;;;0.00;99.90;;;;;;4897480;29;20453;-76
2023/04/05 04:21:32;;;;;;;10.33;8.17;;;0.00;99.90;;;;;;4897789;29;20878;-76
2023/04/05 04:24:15;;;;;;;11.27;8.03;;;0.00;99.90;;;;;;4897760;29;20454;-76
2023/04/05 04:27:05;;;;;;;9.77;7.97;;;0.00;99.90;;;;;;4897557;29;20472;-76
2023/04/05 04:30:13;;;;;;;12.40;7.60;;;0.00;99.90;;;;;;4901816;29;20453;-76
2023/04/05 04:32:50;;;;;;;11.87;8.57;;;-0.10;99.90;;;;;;4898470;29;20466;-76
2023/04/05 04:35:38;;;;;;;12.40;8.67;;;-0.10;99.90;;;;;;4897281;29;20463;-76
2023/04/05 04:38:09;;;;;;;10.87;7.33;;;-0.10;99.90;;;;;;4898821;29;20429;-76
2023/04/05 04:40:46;;;;;;;11.13;7.97;;;-0.10;99.90;;;;;;4897119;29;20480;-76
2023/04/05 04:43:26;;;;;;;10.00;8.73;;;-0.10;99.90;;;;;;4897443;29;20546;-76
2023/04/05 04:46:18;;;;;;;12.00;8.37;;;-0.10;99.90;;;;;;4897222;29;20459;-76
2023/04/05 04:49:07;;;;;;;9.40;7.83;;;-0.20;99.90;;;;;;4897241;29;20909;-75
2023/04/05 04:51:38;;;;;;;10.03;8.13;;;-0.20;99.90;;;;;;4897541;29;20821;-75
2023/04/05 04:54:07;;;;;;;10.63;8.20;;;-0.20;99.90;;;;;;4897390;29;20457;-75
2023/04/05 04:56:35;;;;;;;10.60;8.30;;;-0.20;99.90;;;;;;4896975;29;20468;-75
2023/04/05 04:59:03;;;;;;;11.33;8.80;;;-0.20;99.90;;;;;;4896959;29;20532;-75
2023/04/05 05:01:32;;;;;;;11.67;9.17;;;-0.20;99.90;;;;;;4896869;29;20874;-76
2023/04/05 05:04:03;;;;;;;14.10;9.30;;;-0.20;99.90;;;;;;4896954;29;20467;-75
2023/04/05 05:06:36;;;;;;;11.87;9.87;;;-0.20;99.90;;;;;;4896856;29;20456;-75
2023/04/05 05:09:05;;;;;;;11.60;8.73;;;-0.30;99.90;;;;;;4897930;29;20474;-75
2023/04/05 05:11:37;;;;;;;11.27;7.70;;;-0.30;99.90;;;;;;4896730;29;20478;-75
2023/04/05 05:14:08;;;;;;;12.13;8.87;;;-0.30;99.90;;;;;;4896984;29;20460;-75
2023/04/05 05:16:38;;;;;;;12.40;10.50;;;-0.30;99.90;;;;;;4896743;29;20507;-75
2023/04/05 05:19:06;;;;;;;13.03;9.27;;;-0.30;99.90;;;;;;4896641;29;20449;-75
2023/04/05 05:21:45;;;;;;;12.07;8.33;;;-0.30;99.90;;;;;;4896784;29;20473;-75
2023/04/05 05:24:13;;;;;;;15.73;8.97;;;-0.30;99.90;;;;;;4896916;29;20477;-75
2023/04/05 05:26:42;;;;;;;13.20;8.10;;;-0.30;99.90;;;;;;4898017;29;20536;-75
2023/04/05 05:29:10;;;;;;;12.57;9.20;;;-0.30;99.90;;;;;;4896701;29;20470;-76
2023/04/05 05:31:43;;;;;;;13.87;9.07;;;-0.20;99.90;;;;;;4897218;29;20474;-76
2023/04/05 05:34:11;;;;;;;14.13;9.37;;;-0.30;99.90;;;;;;4896650;29;20540;-76
2023/04/05 05:36:43;;;;;;;12.27;8.70;;;-0.30;99.90;;;;;;4897004;29;20445;-76
2023/04/05 05:39:11;;;;;;;12.10;10.60;;;-0.30;99.90;;;;;;4896633;29;20473;-76
2023/04/05 05:41:39;;;;;;;13.40;10.43;;;-0.30;99.90;;;;;;4897010;29;20833;-76
2023/04/05 05:44:07;;;;;;;11.97;10.23;;;-0.20;99.90;;;;;;4897612;29;20496;-76
2023/04/05 05:46:36;;;;;;;13.37;11.13;;;-0.30;99.90;;;;;;4900507;29;20456;-76
2023/04/05 05:49:06;;;;;;;15.70;9.57;;;-0.20;99.90;;;;;;4901592;29;20482;-76
2023/04/05 05:51:35;;;;;;;12.03;9.20;;;-0.20;99.90;;;;;;4900271;29;20480;-76
2023/04/05 05:54:04;;;;;;;10.93;9.40;;;-0.20;99.90;;;;;;4900370;29;20453;-76
2023/04/05 05:56:32;;;;;;;11.73;9.70;;;-0.20;99.90;;;;;;4900446;29;20880;-76
2023/04/05 05:59:00;;;;;;;11.07;9.57;;;0.10;99.90;;;;;;4901441;29;20442;-76
2023/04/05 06:01:28;;;;;;;13.90;9.17;;;-0.10;99.90;;;;;;4901301;29;20469;-76
2023/04/05 06:03:57;;;;;;;13.20;10.70;;;-0.10;99.90;;;;;;4900169;29;20505;-76
2023/04/05 06:06:28;;;;;;;14.57;9.90;;;-0.10;99.90;;;;;;4900174;29;20453;-76
2023/04/05 06:08:59;;;;;;;14.43;10.67;;;0.00;99.90;;;;;;4901455;29;20476;-76
2023/04/05 06:11:27;;;;;;;11.20;10.00;;;0.00;99.90;;;;;;4901676;29;20544;-76
2023/04/05 06:13:56;;;;;;;12.63;9.60;;;0.10;99.90;;;;;;4899949;29;20874;-76
2023/04/05 06:16:24;;;;;;;12.57;9.10;;;0.30;99.90;;;;;;4899907;29;20557;-76
2023/04/05 06:18:54;;;;;;;12.03;10.57;;;0.50;99.90;;;;;;4900011;29;20453;-76
2023/04/05 06:21:23;;;;;;;15.40;10.53;;;0.70;99.90;;;;;;4901274;29;20468;-76
2023/04/05 06:23:52;;;;;;;11.23;9.10;;;1.00;99.90;;;;;;4899735;29;20472;-76
2023/04/05 06:26:25;;;;;;;11.20;9.40;;;1.30;99.90;;;;;;4899761;29;20462;-76
2023/04/05 06:28:54;;;;;;;10.73;9.30;;;1.50;99.90;;;;;;4899633;29;20476;-76
2023/04/05 06:31:27;;;;;;;10.40;8.97;;;1.90;99.90;;;;;;4899965;29;20892;-76
2023/04/05 06:33:56;;;;;;;12.20;8.93;;;2.10;99.90;;;;;;4899772;29;20460;-77
2023/04/05 06:36:25;;;;;;;9.90;8.70;;;2.40;99.90;;;;;;4901047;29;20948;-77
2023/04/05 06:38:56;;;;;;;11.17;8.00;;;2.70;99.90;;;;;;4899703;29;20527;-77
2023/04/05 06:41:28;;;;;;;10.27;9.00;;;3.00;99.90;;;;;;4901086;29;20496;-77
2023/04/05 06:43:57;;;;;;;10.40;8.67;;;3.30;99.90;;;;;;4899619;29;20474;-77
2023/04/05 06:46:25;;;;;;;10.43;8.17;;;3.50;99.90;;;;;;4899626;29;20460;-77
2023/04/05 06:48:53;;;;;;;9.20;7.80;;;3.80;99.90;;;;;;4900235;29;20464;-76
2023/04/05 06:51:21;;;;;;;10.90;7.50;;;4.00;99.90;;;;;;4899436;29;20466;-77
2023/04/05 06:53:50;;;;;;;9.80;7.80;;;4.20;99.90;;;;;;4900158;29;20457;-77
2023/04/05 06:56:20;;;;;;;10.83;7.20;;;4.50;99.90;;;;;;4898154;29;20453;-77
2023/04/05 06:58:49;;;;;;;10.70;7.63;;;4.70;99.90;;;;;;4900498;29;20454;-77
2023/04/05 07:01:18;;;;;;;10.50;7.37;;;4.90;99.90;;;;;;4903207;29;20915;-77
2023/04/05 07:03:46;;;;;;;11.20;7.70;;;5.10;99.90;;;;;;4902853;29;20462;-77
2023/04/05 07:06:14;;;;;;;9.33;8.10;;;5.30;99.90;;;;;;4902851;29;20457;-77
2023/04/05 07:08:42;;;;;;;11.70;8.30;;;5.40;99.90;;;;;;4902852;29;20473;-77
2023/04/05 07:11:12;;;;;;;11.93;7.93;;;5.60;99.90;;;;;;4903932;29;20492;-77
2023/04/05 07:13:42;;;;;;;12.80;8.20;;;5.60;99.90;;;;;;4904293;29;20442;-77
2023/04/05 07:16:10;;;;;;;10.27;9.10;;;5.70;99.90;;;;;;4902631;29;20453;-77
2023/04/05 07:18:38;;;;;;;9.77;7.50;;;5.70;99.90;;;;;;4899346;29;20450;-77
2023/04/05 07:21:07;;;;;;;11.23;8.00;;;5.80;99.90;;;;;;4898744;29;20537;-77
2023/04/05 07:23:35;;;;;;;10.03;7.90;;;5.80;99.90;;;;;;4899008;29;20457;-78
2023/04/05 07:26:04;;;;;;;9.70;7.57;;;5.80;99.90;;;;;;4898841;29;20455;-77
2023/04/05 07:28:34;;;;;;;13.57;7.70;;;5.90;99.90;;;;;;4898868;29;20484;-77
2023/04/05 07:31:06;;;;;;;11.60;8.90;;;6.00;99.90;;;;;;4900574;29;20487;-77
2023/04/05 07:33:34;;;;;;;7.27;5.57;;;6.00;99.90;;;;;;4899065;29;20438;-76
2023/04/05 07:36:03;;;;;;;6.63;5.40;;;6.10;99.90;;;;;;4898711;29;20458;-77
2023/04/05 07:38:31;;;;;;;11.40;5.60;;;6.20;99.90;;;;;;4898691;29;20995;-77
2023/04/05 07:40:59;;;;;;;17.73;5.70;;;6.30;99.90;;;;;;4900333;29;20473;-77
2023/04/05 07:43:28;;;;;;;6.37;5.17;;;6.40;99.90;;;;;;4898522;29;20504;-77
2023/04/05 07:46:02;;;;;;;6.40;4.80;;;6.60;99.90;;;;;;4898856;29;20441;-77
2023/04/05 07:48:31;;;;;;;7.30;4.70;;;6.70;99.90;;;;;;4899908;29;20962;-76
2023/04/05 07:51:10;;;;;;;5.90;4.77;;;6.90;99.90;;;;;;4902911;29;20496;-76
2023/04/05 07:53:38;;;;;;;8.00;5.20;;;7.10;99.90;;;;;;4906781;29;20490;-76
2023/04/05 07:56:07;;;;;;;8.73;5.63;;;7.30;99.90;;;;;;4910508;29;20456;-76
2023/04/05 07:58:39;;;;;;;7.17;4.80;;;7.40;99.90;;;;;;4915111;29;20456;-75
2023/04/05 08:01:09;;;;;;;6.70;4.30;;;7.70;99.90;;;;;;4915211;29;20469;-76
2023/04/05 08:03:39;;;;;;;5.97;4.20;;;7.70;99.90;;;;;;4913982;29;20462;-76
2023/04/05 08:06:11;;;;;;;7.40;5.20;;;7.90;99.90;;;;;;4913044;29;20445;-76
2023/04/05 08:08:39;;;;;;;7.23;4.90;;;8.00;99.90;;;;;;4909670;29;20481;-76
2023/04/05 08:11:08;;;;;;;6.73;5.03;;;8.20;99.90;;;;;;4908486;29;20481;-76
2023/04/05 08:13:39;;;;;;;6.73;4.67;;;8.30;99.90;;;;;;4907903;29;20486;-76
2023/04/05 08:16:08;;;;;;;5.57;4.20;;;8.50;99.80;;;;;;4908183;29;20519;-76
2023/04/05 08:18:36;;;;;;;8.57;5.10;;;8.60;99.80;;;;;;4906848;29;20940;-77
2023/04/05 08:21:05;;;;;;;6.13;4.40;;;8.70;99.60;;;;;;4906857;29;20473;-77
2023/04/05 08:23:34;;;;;;;7.47;4.90;;;8.90;99.50;;;;;;4903238;29;20472;-77
2023/04/05 08:26:02;;;;;;;6.80;4.70;;;9.00;99.50;;;;;;4903964;29;20441;-77
2023/04/05 08:28:30;;;;;;;8.00;4.90;;;9.10;99.70;;;;;;4903916;29;20448;-77
2023/04/05 08:30:58;;;;;;;7.53;3.93;;;9.30;99.20;;;;;;4901634;29;20493;-77
2023/04/05 08:33:29;;;;;;;11.93;5.13;;;9.30;99.00;;;;;;4898299;29;20898;-77
2023/04/05 08:35:58;;;;;;;6.57;3.00;;;9.50;99.00;;;;;;4899687;29;20437;-77
2023/04/05 08:38:27;;;;;;;4.30;2.80;;;9.60;98.90;;;;;;4899476;29;20438;-77
2023/04/05 08:40:55;;;;;;;5.80;3.83;;;9.70;98.80;;;;;;4898121;29;20477;-77
2023/04/05 08:43:40;;;;;;;5.67;2.97;;;9.90;98.80;;;;;;4897440;29;20454;-77
2023/04/05 08:46:09;;;;;;;5.77;4.00;;;10.00;98.10;;;;;;4898507;29;20782;-77
2023/04/05 08:48:37;;;;;;;5.90;3.50;;;10.10;98.10;;;;;;4897405;29;20457;-77
2023/04/05 08:51:08;;;;;;;5.57;3.50;;;10.20;97.90;;;;;;4897182;29;20488;-76
2023/04/05 08:53:38;;;;;;;5.27;2.57;;;10.30;97.70;;;;;;4898816;29;20854;-75
2023/04/05 08:56:08;;;;;;;6.13;2.93;;;10.30;97.50;;;;;;4913201;29;20433;-76
2023/04/05 08:58:38;;;;;;;5.03;2.93;;;10.40;97.20;;;;;;4898422;29;20452;-77
2023/04/05 09:01:07;;;;;;;6.30;3.10;;;10.50;96.90;;;;;;4898607;29;20540;-76
2023/04/05 09:03:37;;;;;;;4.50;2.63;;;10.50;96.70;;;;;;4897416;29;20820;-76
2023/04/05 09:06:09;;;;;;;5.37;3.00;;;10.50;96.50;;;;;;4898655;29;20794;-76
2023/04/05 09:08:39;;;;;;;5.93;2.90;;;10.60;96.40;;;;;;4898826;29;20795;-76
2023/04/05 09:11:07;;;;;;;5.03;3.00;;;10.60;96.20;;;;;;4897074;29;20495;-76
2023/04/05 09:13:35;;;;;;;5.60;3.30;;;10.70;96.10;;;;;;4897097;29;20461;-76
2023/04/05 09:16:04;;;;;;;6.70;3.30;;;10.70;95.80;;;;;;4897056;29;20453;-76
2023/04/05 09:18:32;;;;;;;8.07;3.23;;;10.70;95.60;;;;;;4896277;29;20464;-77
2023/04/05 09:21:04;;;;;;;5.80;3.40;;;10.80;95.40;;;;;;4897012;29;20461;-77
2023/04/05 09:23:34;;;;;;;5.30;2.80;;;10.80;95.00;;;;;;4896940;29;20449;-76
2023/04/05 09:26:18;;;;;;;6.53;3.13;;;10.80;94.90;;;;;;4896996;29;20493;-76
2023/04/05 09:28:46;;;;;;;4.83;3.30;;;10.80;94.70;;;;;;4898485;29;20425;-76
2023/04/05 09:31:31;;;;;;;6.30;3.00;;;10.80;94.60;;;;;;4897295;29;20927;-76
2023/04/05 09:34:02;;;;;;;4.67;2.80;;;10.90;94.60;;;;;;4897138;29;20556;-76
2023/04/05 09:36:31;;;;;;;6.20;3.70;;;10.90;94.70;;;;;;4896879;29;20454;-76
2023/04/05 09:39:07;;;;;;;6.30;3.13;;;11.00;94.60;;;;;;4897684;29;20789;-76
2023/04/05 09:41:38;;;;;;;4.90;2.50;;;11.10;94.60;;;;;;4896787;29;20473;-76
2023/04/05 09:44:06;;;;;;;4.37;2.70;;;11.10;94.30;;;;;;4898538;29;20876;-76
2023/04/05 09:46:36;;;;;;;4.33;2.63;;;11.20;94.20;;;;;;4896876;29;20456;-76
2023/04/05 09:49:08;;;;;;;6.30;3.17;;;11.20;93.90;;;;;;4897008;29;20441;-76
2023/04/05 09:51:38;;;;;;;4.83;3.00;;;11.20;93.40;;;;;;4896829;29;20489;-76
2023/04/05 09:54:10;;;;;;;4.50;2.83;;;11.10;93.10;;;;;;4897189;29;20961;-76
2023/04/05 09:56:53;;;;;;;5.87;3.00;;;11.00;92.60;;;;;;4896982;29;20457;-76
2023/04/05 09:59:22;;;;;;;6.73;3.70;;;10.90;92.70;;;;;;4896923;29;20449;-76
2023/04/05 10:01:52;;;;;;;6.60;3.43;;;10.90;92.80;;;;;;4898152;29;20808;-76
2023/04/05 10:04:20;;;;;;;5.00;3.10;;;10.90;92.60;;;;;;4896619;29;21028;-76
2023/04/05 10:06:48;;;;;;;5.17;3.50;;;10.80;92.60;;;;;;4896615;29;20524;-77
2023/04/05 10:09:18;;;;;;;7.23;3.37;;;10.80;92.50;;;;;;4896571;29;20821;-77
2023/04/05 10:11:47;;;;;;;6.17;3.60;;;10.90;92.40;;;;;;4896489;29;21000;-77
2023/04/05 10:14:16;;;;;;;5.30;2.77;;;10.90;92.50;;;;;;4898105;29;20437;-77
2023/04/05 10:16:50;;;;;;;4.50;2.87;;;10.90;92.60;;;;;;4897787;29;21000;-77
2023/04/05 10:19:26;;;;;;;6.20;3.13;;;11.00;92.60;;;;;;4896561;29;20444;-76
2023/04/05 10:21:59;;;;;;;7.10;3.33;;;11.10;92.50;;;;;;4897931;29;20816;-77
2023/04/05 10:24:35;;;;;;;6.00;3.13;;;11.20;92.40;;;;;;4896687;29;20476;-77
2023/04/05 10:27:15;;;;;;;5.03;2.90;;;11.20;92.30;;;;;;4896447;29;20445;-77
2023/04/05 10:29:51;;;;;;;7.00;3.40;;;11.30;92.30;;;;;;4897146;29;20811;-77
2023/04/05 10:32:30;;;;;;;6.07;3.53;;;11.30;92.20;;;;;;4899794;29;20988;-77
2023/04/05 10:35:05;;;;;;;5.03;3.37;;;11.30;92.10;;;;;;4899922;29;20492;-77
2023/04/05 10:37:41;;;;;;;5.43;3.30;;;11.40;92.00;;;;;;4915848;29;20925;-77
2023/04/05 10:40:11;;;;;;;4.30;3.30;;;11.30;91.80;;;;;;4901170;29;20792;-77
2023/04/05 10:42:43;;;;;;;6.03;4.33;;;11.30;91.70;;;;;;4899900;29;20536;-75
2023/04/05 10:45:14;;;;;;;5.20;3.93;;;11.30;91.30;;;;;;4899668;29;20472;-75
2023/04/05 10:47:47;;;;;;;5.90;4.00;;;11.20;91.50;;;;;;4901304;29;20434;-75
2023/04/05 10:50:22;;;;;;;4.80;3.60;;;11.20;91.00;;;;;;4899565;29;20453;-75
2023/04/05 10:52:51;;;;;;;6.53;3.50;;;11.10;91.00;;;;;;4900821;29;20563;-75
2023/04/05 10:55:20;;;;;;;7.23;3.77;;;11.10;90.90;;;;;;4899549;29;20445;-75
2023/04/05 10:57:50;;;;;;;5.50;4.10;;;11.10;90.90;;;;;;4899266;29;20483;-76
2023/04/05 11:00:19;;;;;;;6.63;4.30;;;11.10;90.90;;;;;;4901086;29;20460;-76
2023/04/05 11:02:53;;;;;;;5.47;4.03;;;11.10;90.90;;;;;;4899128;29;20474;-76
2023/04/05 11:05:34;;;;;;;4.67;3.37;;;11.10;90.80;;;;;;4900736;29;20418;-76
2023/04/05 11:08:07;;;;;;;7.40;4.00;;;11.10;90.70;;;;;;4900721;29;20437;-76
2023/04/05 11:10:37;;;;;;;6.47;3.93;;;11.10;90.70;;;;;;4899304;29;20437;-72
2023/04/05 11:13:10;;;;;;;10.07;4.63;;;11.10;90.50;;;;;;4899437;29;20505;-76
2023/04/05 11:15:39;;;;;;;7.57;3.97;;;11.00;90.40;;;;;;4900623;29;20444;-76
2023/04/05 11:18:10;;;;;;;6.23;3.30;;;11.00;90.40;;;;;;4898928;29;20873;-74
2023/04/05 11:20:43;;;;;;;10.27;5.50;;;10.90;90.00;;;;;;4899125;29;20446;-75
2023/04/05 11:23:12;;;;;;;7.43;4.20;;;10.90;90.00;;;;;;4900263;29;20447;-75
2023/04/05 11:25:47;;;;;;;7.50;5.27;;;10.90;90.00;;;;;;4899915;29;20437;-75
2023/04/05 11:28:24;;;;;;;5.83;4.07;;;10.90;89.80;;;;;;4900419;29;20449;-75
2023/04/05 11:30:55;;;;;;;4.93;3.40;;;10.90;89.40;;;;;;4900475;29;20979;-76
2023/04/05 11:33:57;;;;;;;5.93;3.57;;;10.90;89.90;;;;;;4898888;29;20999;-75
2023/04/05 11:36:36;;;;;;;9.63;6.80;;;10.90;88.80;;;;;;4896566;29;20444;-76
2023/04/05 11:39:24;;;;;;;6.07;3.70;;;10.90;88.70;;;;;;4898657;29;20548;-76
2023/04/05 11:41:58;;;;;;;6.33;3.00;;;10.90;88.50;;;;;;4898082;29;20470;-75
2023/04/05 11:44:30;;;;;;;5.40;3.10;;;10.90;88.50;;;;;;4898534;29;20919;-76
2023/04/05 11:46:59;;;;;;;7.50;3.80;;;10.90;88.40;;;;;;4900002;29;20894;-75
2023/04/05 11:49:28;;;;;;;5.10;3.23;;;10.90;88.40;;;;;;4898621;29;20987;-76
2023/04/05 11:51:56;;;;;;;4.30;2.93;;;10.90;88.70;;;;;;4899571;29;20995;-76
2023/04/05 11:54:32;;;;;;;4.50;3.03;;;10.90;88.70;;;;;;4899852;29;20441;-76
2023/04/05 11:57:00;;;;;;;5.10;2.87;;;10.90;87.90;;;;;;4898250;29;20471;-75
2023/04/05 11:59:37;;;;;;;5.83;3.07;;;10.90;87.20;;;;;;4898383;29;20577;-76
2023/04/05 12:02:07;;;;;;;7.20;3.33;;;10.90;86.80;;;;;;4899916;29;20467;-76
2023/04/05 12:04:35;;;;;;;5.23;3.60;;;10.90;87.10;;;;;;4899340;29;20488;-76
2023/04/05 12:07:15;;;;;;;6.07;3.50;;;10.90;87.00;;;;;;4899278;29;20501;-75
2023/04/05 12:10:00;;;;;;;5.57;3.90;;;10.90;86.90;;;;;;4899519;29;20421;-75
2023/04/05 12:12:33;;;;;;;5.20;3.37;;;10.90;87.10;;;;;;4899701;29;20473;-75
2023/04/05 12:15:04;;;;;;;5.67;3.50;;;10.90;87.80;;;;;;4897927;29;20446;-76
2023/04/05 12:17:43;;;;;;;4.63;2.97;;;10.90;87.10;;;;;;4899384;29;20430;-76
2023/04/05 12:20:13;;;;;;;4.13;2.73;;;10.80;86.00;;;;;;4897895;29;20540;-75
2023/04/05 12:22:43;;;;;;;5.90;3.73;;;10.70;86.60;;;;;;4898920;29;20465;-75
2023/04/05 12:25:11;;;;;;;5.57;3.70;;;10.70;86.80;;;;;;4897658;29;20468;-75
2023/04/05 12:27:40;;;;;;;5.03;3.20;;;10.60;86.20;;;;;;4898922;29;20460;-75
2023/04/05 12:30:14;;;;;;;4.13;2.77;;;10.60;86.10;;;;;;4899410;29;20441;-75
2023/04/05 12:32:47;;;;;;;4.80;3.60;;;10.50;86.20;;;;;;4897389;29;20481;-76
2023/04/05 12:35:19;;;;;;;4.43;2.77;;;10.50;86.00;;;;;;4897429;29;20477;-75
2023/04/05 12:37:50;;;;;;;6.80;3.40;;;10.40;86.10;;;;;;4898912;29;20441;-75
2023/04/05 12:40:22;;;;;;;6.00;3.00;;;10.50;86.20;;;;;;4897430;29;20873;-75
2023/04/05 12:42:50;;;;;;;5.83;3.33;;;10.50;86.40;;;;;;4897345;29;20481;-75
2023/04/05 12:45:23;;;;;;;6.43;3.60;;;10.50;86.70;;;;;;4897377;29;20458;-75
2023/04/05 12:47:57;;;;;;;4.77;3.43;;;10.60;86.60;;;;;;4897412;29;20929;-75
2023/04/05 12:50:28;;;;;;;5.13;3.60;;;10.70;86.70;;;;;;4898615;29;20429;-75
2023/04/05 12:52:58;;;;;;;5.87;3.90;;;10.70;87.20;;;;;;4898515;29;20981;-75
2023/04/05 12:55:28;;;;;;;5.30;3.93;;;10.80;88.30;;;;;;4897280;29;20464;-76
2023/04/05 12:57:59;;;;;;;5.80;3.77;;;10.90;87.60;;;;;;4897194;29;20556;-75
2023/04/05 13:00:30;;;;;;;5.07;3.20;;;11.00;87.30;;;;;;4897247;29;20445;-75
2023/04/05 13:02:59;;;;;;;4.80;3.63;;;11.00;87.10;;;;;;4898437;29;20426;-76
2023/04/05 13:05:30;;;;;;;5.87;3.77;;;10.90;86.10;;;;;;4897292;29;20540;-75
2023/04/05 13:07:58;;;;;;;6.73;4.13;;;10.90;85.90;;;;;;4897092;29;20872;-75
2023/04/05 13:10:27;;;;;;;7.77;3.43;;;10.70;85.50;;;;;;4897282;29;20464;-75